Terminal Aerodrome Forecast
Issued by NWS

Home | Current Version | Previous Version | Text Only | Print | Product List | Glossary On
Versions: 1 2 3 4 5 6 7 8 9 10 11 12 13 14 15 16 17
444
FTUS43 KGRR 240530
TAFBTL
TAF
KBTL 240530Z 2406/2506 18012KT P6SM OVC035
     FM241000 20012G20KT P6SM OVC035
     FM241600 21013G24KT P6SM OVC035
     FM250100 23006KT 4SM BR VCSH OVC015=

USA.gov is the U.S. government's official web portal to all federal, state and local government web resources and services.